Don Miguel Hidalgo Y Costilla International Airport
MMGL : now visible

Airfield :











YOU CAN JOIN US ON...

 
LOGIN :

Register | Disclaimer

   EN    FR    IT 

 









Legend :    VFR   Marginal VFR   IFR   Intensive IFR   Very Intensive IFR
Visi :
Ceiling :
>= 8 km
>= 3000ft
5 to 8 km
1000 to 3000 ft
1500m to 5 km
500 to 1000 ft
800 to 1500m
200 to 500 ft
< 800m
< 200 ft
Symbols :   Thunderstorms  Fog  Heavy snow  Heavy precipitations  Wind > 20 kt







- Airport Elevation : 5016 ft
- IATA code : GDL


MMGL - Don Miguel Hidalgo Y Costilla International

CURRENT METAR :
  • 160341Z 28008KT 8SM SCT020CB BKN080 BKN300 21/12 A3012 RMK 8/963

EXPIRED METARs :
  • 160242Z 28009KT 8SM SCT020CB BKN080 BKN300 21/13 A3011 RMK SLP072 52021 901 8/963 LTGICCG S
  • 160144Z 23012G22KT 10SM SCT020CB BKN080 BKN300 21/14 A3011 RMK 8/963 LTG-PCPN SSW

TAF COR TAF MMGL
Valid from the 16 at 01:00 until the 17 at 06:00 UTC


160221Z 1601/1706 23010G20KT P6SM BKN020CB BKN080 OVC300 TX32/1621Z TN19/1612Z
TEMPO 1602/1605 4SM TSRA BKN015CB
FM160500 03005KT P6SM SCT030 SCT100
FM161800 03010KT P6SM SCT030
TEMPO 1623/1703 6SM TSRA BKN020CB
MMFR FIR / North America



MET'MAP, your aeronautical weather chart ! - Copyright ORBIFLY December 2007 - Disclaimer

ORBIFLY MET'MAP TEAM :

Programming & Development : Alexandra Zaïnal
Concept & Development : Baudouin d'Aumeries
Co-Development & Prog : Marc-Olivier Méhu
Technical & hardware support : Manuel Goepfert

Contact : metmap@orbifly.com




SOURCES & CREDITS :

   NOAA       Earth
Advisory